sensor_id;sensor_type;location;lat;lon;timestamp;P1;durP1;ratioP1;P2;durP2;ratioP2
53939;SDS011;39850;43.324;21.916;2022-09-27T00:02:50;30.0;;;32.0;;
53939;SDS011;39850;43.324;21.916;2022-09-27T00:07:27;30.0;;;32.0;;
53939;SDS011;39850;43.324;21.916;2022-09-27T00:12:04;30.0;;;32.0;;
53939;SDS011;39850;43.324;21.916;2022-09-27T00:16:44;30.0;;;32.0;;
53939;SDS011;39850;43.324;21.916;2022-09-27T00:21:21;30.0;;;32.0;;
53939;SDS011;39850;43.324;21.916;2022-09-27T00:25:59;30.0;;;32.0;;
53939;SDS011;39850;43.324;21.916;2022-09-27T00:30:41;30.0;;;32.0;;
53939;SDS011;39850;43.324;21.916;2022-09-27T01:04:51;23.0;;;24.0;;
53939;SDS011;39850;43.324;21.916;2022-09-27T01:09:31;23.0;;;24.0;;
53939;SDS011;39850;43.324;21.916;2022-09-27T01:15:23;24.0;;;24.0;;
53939;SDS011;39850;43.324;21.916;2022-09-27T01:21:59;24.0;;;24.0;;
53939;SDS011;39850;43.324;21.916;2022-09-27T01:28:21;24.0;;;25.0;;
53939;SDS011;39850;43.324;21.916;2022-09-27T01:33:58;24.0;;;26.0;;
53939;SDS011;39850;43.324;21.916;2022-09-27T01:39:39;24.0;;;26.0;;
53939;SDS011;39850;43.324;21.916;2022-09-27T01:44:50;25.0;;;27.0;;
53939;SDS011;39850;43.324;21.916;2022-09-27T01:50:00;25.0;;;27.0;;
53939;SDS011;39850;43.324;21.916;2022-09-27T02:25:10;26.0;;;27.0;;
53939;SDS011;39850;43.324;21.916;2022-09-27T02:30:14;26.0;;;27.0;;
53939;SDS011;39850;43.324;21.916;2022-09-27T02:35:00;26.0;;;28.0;;
53939;SDS011;39850;43.324;21.916;2022-09-27T02:39:41;26.0;;;28.0;;
53939;SDS011;39850;43.324;21.916;2022-09-27T02:44:19;27.0;;;28.0;;
53939;SDS011;39850;43.324;21.916;2022-09-27T02:49:50;27.0;;;28.0;;
53939;SDS011;39850;43.324;21.916;2022-09-27T02:55:11;27.0;;;28.0;;
53939;SDS011;39850;43.324;21.916;2022-09-27T03:00:14;27.0;;;28.0;;
53939;SDS011;39850;43.324;21.916;2022-09-27T03:05:06;27.0;;;29.0;;
53939;SDS011;39850;43.324;21.916;2022-09-27T03:09:54;27.0;;;29.0;;
53939;SDS011;39850;43.324;21.916;2022-09-27T03:46:49;21.0;;;23.0;;
53939;SDS011;39850;43.324;21.916;2022-09-27T03:51:26;21.0;;;23.0;;
53939;SDS011;39850;43.324;21.916;2022-09-27T03:56:04;20.0;;;22.0;;
53939;SDS011;39850;43.324;21.916;2022-09-27T04:00:44;20.0;;;22.0;;
53939;SDS011;39850;43.324;21.916;2022-09-27T04:05:24;21.0;;;22.0;;
53939;SDS011;39850;43.324;21.916;2022-09-27T04:10:02;21.0;;;22.0;;
53939;SDS011;39850;43.324;21.916;2022-09-27T04:14:40;20.0;;;22.0;;
53939;SDS011;39850;43.324;21.916;2022-09-27T04:19:17;20.0;;;22.0;;
53939;SDS011;39850;43.324;21.916;2022-09-27T04:23:54;20.0;;;22.0;;
53939;SDS011;39850;43.324;21.916;2022-09-27T04:28:32;21.0;;;22.0;;
53939;SDS011;39850;43.324;21.916;2022-09-27T04:33:09;21.0;;;22.0;;
53939;SDS011;39850;43.324;21.916;2022-09-27T05:05:27;16.0;;;17.0;;
53939;SDS011;39850;43.324;21.916;2022-09-27T05:10:08;16.0;;;17.0;;
53939;SDS011;39850;43.324;21.916;2022-09-27T05:14:45;16.0;;;17.0;;
53939;SDS011;39850;43.324;21.916;2022-09-27T05:19:22;16.0;;;17.0;;
53939;SDS011;39850;43.324;21.916;2022-09-27T05:23:59;16.0;;;17.0;;
53939;SDS011;39850;43.324;21.916;2022-09-27T05:28:36;16.0;;;17.0;;
53939;SDS011;39850;43.324;21.916;2022-09-27T05:33:14;16.0;;;17.0;;
53939;SDS011;39850;43.324;21.916;2022-09-27T05:37:57;16.0;;;17.0;;
53939;SDS011;39850;43.324;21.916;2022-09-27T05:42:38;16.0;;;17.0;;
53939;SDS011;39850;43.324;21.916;2022-09-27T05:47:15;16.0;;;17.0;;
53939;SDS011;39850;43.324;21.916;2022-09-27T05:51:53;16.0;;;17.0;;
53939;SDS011;39850;43.324;21.916;2022-09-27T06:28:51;18.0;;;19.0;;
53939;SDS011;39850;43.324;21.916;2022-09-27T06:33:28;18.0;;;19.0;;
53939;SDS011;39850;43.324;21.916;2022-09-27T06:38:14;18.0;;;18.0;;
53939;SDS011;39850;43.324;21.916;2022-09-27T06:42:53;18.0;;;18.0;;
53939;SDS011;39850;43.324;21.916;2022-09-27T06:47:37;18.0;;;18.0;;
53939;SDS011;39850;43.324;21.916;2022-09-27T06:52:14;18.0;;;18.0;;
53939;SDS011;39850;43.324;21.916;2022-09-27T06:56:51;18.0;;;18.0;;
53939;SDS011;39850;43.324;21.916;2022-09-27T07:01:29;18.0;;;18.0;;
53939;SDS011;39850;43.324;21.916;2022-09-27T07:06:21;18.0;;;17.0;;
53939;SDS011;39850;43.324;21.916;2022-09-27T07:11:07;18.0;;;17.0;;
53939;SDS011;39850;43.324;21.916;2022-09-27T07:48:03;17.0;;;18.0;;
53939;SDS011;39850;43.324;21.916;2022-09-27T07:52:47;17.0;;;18.0;;
53939;SDS011;39850;43.324;21.916;2022-09-27T07:57:24;18.0;;;19.0;;
53939;SDS011;39850;43.324;21.916;2022-09-27T08:02:01;18.0;;;19.0;;
53939;SDS011;39850;43.324;21.916;2022-09-27T08:06:38;17.0;;;18.0;;
53939;SDS011;39850;43.324;21.916;2022-09-27T08:11:18;17.0;;;18.0;;
53939;SDS011;39850;43.324;21.916;2022-09-27T08:16:02;18.0;;;19.0;;
53939;SDS011;39850;43.324;21.916;2022-09-27T08:20:39;18.0;;;19.0;;
53939;SDS011;39850;43.324;21.916;2022-09-27T08:25:16;17.0;;;18.0;;
53939;SDS011;39850;43.324;21.916;2022-09-27T08:29:53;17.0;;;18.0;;
53939;SDS011;39850;43.324;21.916;2022-09-27T08:34:30;17.0;;;18.0;;
53939;SDS011;39850;43.324;21.916;2022-09-27T09:09:36;12.0;;;12.0;;
53939;SDS011;39850;43.324;21.916;2022-09-27T09:15:12;12.0;;;12.0;;
53939;SDS011;39850;43.324;21.916;2022-09-27T09:20:53;12.0;;;12.0;;
53939;SDS011;39850;43.324;21.916;2022-09-27T09:26:04;11.0;;;11.0;;
53939;SDS011;39850;43.324;21.916;2022-09-27T09:31:26;11.0;;;11.0;;
53939;SDS011;39850;43.324;21.916;2022-09-27T09:36:42;11.0;;;10.0;;
53939;SDS011;39850;43.324;21.916;2022-09-27T09:41:47;11.0;;;10.0;;
53939;SDS011;39850;43.324;21.916;2022-09-27T09:46:57;11.0;;;10.0;;
53939;SDS011;39850;43.324;21.916;2022-09-27T09:52:09;11.0;;;10.0;;
53939;SDS011;39850;43.324;21.916;2022-09-27T10:25:58;21.0;;;22.0;;
53939;SDS011;39850;43.324;21.916;2022-09-27T10:30:36;21.0;;;22.0;;
53939;SDS011;39850;43.324;21.916;2022-09-27T10:35:41;21.0;;;22.0;;
53939;SDS011;39850;43.324;21.916;2022-09-27T10:40:32;15.0;;;15.0;;
53939;SDS011;39850;43.324;21.916;2022-09-27T10:45:32;15.0;;;15.0;;
53939;SDS011;39850;43.324;21.916;2022-09-27T10:50:26;9.0;;;8.0;;
53939;SDS011;39850;43.324;21.916;2022-09-27T10:55:26;9.0;;;8.0;;
53939;SDS011;39850;43.324;21.916;2022-09-27T11:00:25;9.0;;;8.0;;
53939;SDS011;39850;43.324;21.916;2022-09-27T11:05:33;9.0;;;8.0;;
53939;SDS011;39850;43.324;21.916;2022-09-27T11:10:30;9.0;;;8.0;;
53939;SDS011;39850;43.324;21.916;2022-09-27T11:15:17;9.0;;;8.0;;
53939;SDS011;39850;43.324;21.916;2022-09-27T11:48:13;14.0;;;14.0;;
53939;SDS011;39850;43.324;21.916;2022-09-27T11:54:05;14.0;;;14.0;;
53939;SDS011;39850;43.324;21.916;2022-09-27T12:00:09;12.0;;;11.0;;
53939;SDS011;39850;43.324;21.916;2022-09-27T12:05:42;12.0;;;11.0;;
53939;SDS011;39850;43.324;21.916;2022-09-27T12:10:49;10.0;;;9.0;;
53939;SDS011;39850;43.324;21.916;2022-09-27T12:15:47;10.0;;;9.0;;
53939;SDS011;39850;43.324;21.916;2022-09-27T12:20:40;10.0;;;8.0;;
53939;SDS011;39850;43.324;21.916;2022-09-27T12:25:33;10.0;;;8.0;;
53939;SDS011;39850;43.324;21.916;2022-09-27T12:30:15;10.0;;;9.0;;
53939;SDS011;39850;43.324;21.916;2022-09-27T12:35:17;10.0;;;9.0;;
53939;SDS011;39850;43.324;21.916;2022-09-27T13:12:07;8.0;;;7.0;;
53939;SDS011;39850;43.324;21.916;2022-09-27T13:16:49;8.0;;;7.0;;
53939;SDS011;39850;43.324;21.916;2022-09-27T13:21:58;8.0;;;7.0;;
53939;SDS011;39850;43.324;21.916;2022-09-27T13:26:51;8.0;;;7.0;;
53939;SDS011;39850;43.324;21.916;2022-09-27T13:32:33;8.0;;;7.0;;
53939;SDS011;39850;43.324;21.916;2022-09-27T13:37:54;8.0;;;7.0;;
53939;SDS011;39850;43.324;21.916;2022-09-27T13:43:30;8.0;;;7.0;;
53939;SDS011;39850;43.324;21.916;2022-09-27T13:48:47;8.0;;;7.0;;
53939;SDS011;39850;43.324;21.916;2022-09-27T13:53:40;8.0;;;7.0;;
53939;SDS011;39850;43.324;21.916;2022-09-27T14:37:03;9.0;;;6.0;;
53939;SDS011;39850;43.324;21.916;2022-09-27T14:41:41;9.0;;;6.0;;
53939;SDS011;39850;43.324;21.916;2022-09-27T14:46:31;8.0;;;6.0;;
53939;SDS011;39850;43.324;21.916;2022-09-27T14:51:31;8.0;;;6.0;;
53939;SDS011;39850;43.324;21.916;2022-09-27T14:56:26;8.0;;;6.0;;
53939;SDS011;39850;43.324;21.916;2022-09-27T15:01:06;8.0;;;6.0;;
53939;SDS011;39850;43.324;21.916;2022-09-27T15:05:50;8.0;;;6.0;;
53939;SDS011;39850;43.324;21.916;2022-09-27T15:10:37;8.0;;;6.0;;
53939;SDS011;39850;43.324;21.916;2022-09-27T15:15:26;8.0;;;6.0;;
53939;SDS011;39850;43.324;21.916;2022-09-27T15:49:30;8.0;;;6.0;;
53939;SDS011;39850;43.324;21.916;2022-09-27T15:54:07;8.0;;;6.0;;
53939;SDS011;39850;43.324;21.916;2022-09-27T15:58:43;8.0;;;6.0;;
53939;SDS011;39850;43.324;21.916;2022-09-27T16:03:19;8.0;;;6.0;;
53939;SDS011;39850;43.324;21.916;2022-09-27T16:08:00;9.0;;;7.0;;
53939;SDS011;39850;43.324;21.916;2022-09-27T16:12:37;9.0;;;7.0;;
53939;SDS011;39850;43.324;21.916;2022-09-27T16:17:14;14.0;;;10.0;;
53939;SDS011;39850;43.324;21.916;2022-09-27T16:21:51;14.0;;;10.0;;
53939;SDS011;39850;43.324;21.916;2022-09-27T16:26:28;14.0;;;10.0;;
53939;SDS011;39850;43.324;21.916;2022-09-27T16:31:06;18.0;;;14.0;;
53939;SDS011;39850;43.324;21.916;2022-09-27T16:35:45;18.0;;;14.0;;
53939;SDS011;39850;43.324;21.916;2022-09-27T17:08:04;13.0;;;7.0;;
53939;SDS011;39850;43.324;21.916;2022-09-27T17:12:41;13.0;;;7.0;;
53939;SDS011;39850;43.324;21.916;2022-09-27T17:17:18;13.0;;;7.0;;
53939;SDS011;39850;43.324;21.916;2022-09-27T17:21:55;13.0;;;7.0;;
53939;SDS011;39850;43.324;21.916;2022-09-27T17:26:34;13.0;;;7.0;;
53939;SDS011;39850;43.324;21.916;2022-09-27T17:31:17;14.0;;;8.0;;
53939;SDS011;39850;43.324;21.916;2022-09-27T17:36:01;14.0;;;8.0;;
53939;SDS011;39850;43.324;21.916;2022-09-27T17:40:38;15.0;;;8.0;;
53939;SDS011;39850;43.324;21.916;2022-09-27T17:45:16;15.0;;;8.0;;
53939;SDS011;39850;43.324;21.916;2022-09-27T17:49:53;15.0;;;8.0;;
53939;SDS011;39850;43.324;21.916;2022-09-27T17:54:30;15.0;;;8.0;;
53939;SDS011;39850;43.324;21.916;2022-09-27T18:31:44;17.0;;;15.0;;
53939;SDS011;39850;43.324;21.916;2022-09-27T18:36:27;17.0;;;15.0;;
53939;SDS011;39850;43.324;21.916;2022-09-27T18:41:13;17.0;;;14.0;;
53939;SDS011;39850;43.324;21.916;2022-09-27T18:45:51;17.0;;;14.0;;
53939;SDS011;39850;43.324;21.916;2022-09-27T18:50:28;17.0;;;14.0;;
53939;SDS011;39850;43.324;21.916;2022-09-27T18:55:08;17.0;;;14.0;;
53939;SDS011;39850;43.324;21.916;2022-09-27T18:59:45;16.0;;;12.0;;
53939;SDS011;39850;43.324;21.916;2022-09-27T19:04:22;16.0;;;12.0;;
53939;SDS011;39850;43.324;21.916;2022-09-27T19:08:59;14.0;;;11.0;;
53939;SDS011;39850;43.324;21.916;2022-09-27T19:13:37;14.0;;;11.0;;
53939;SDS011;39850;43.324;21.916;2022-09-27T20:00:11;16.0;;;13.0;;
53939;SDS011;39850;43.324;21.916;2022-09-27T20:04:48;16.0;;;13.0;;
53939;SDS011;39850;43.324;21.916;2022-09-27T20:09:25;14.0;;;12.0;;
53939;SDS011;39850;43.324;21.916;2022-09-27T20:14:03;14.0;;;12.0;;
53939;SDS011;39850;43.324;21.916;2022-09-27T20:18:49;14.0;;;12.0;;
53939;SDS011;39850;43.324;21.916;2022-09-27T20:23:32;14.0;;;12.0;;
53939;SDS011;39850;43.324;21.916;2022-09-27T20:28:11;13.0;;;10.0;;
53939;SDS011;39850;43.324;21.916;2022-09-27T20:32:51;13.0;;;10.0;;
53939;SDS011;39850;43.324;21.916;2022-09-27T20:37:30;13.0;;;10.0;;
53939;SDS011;39850;43.324;21.916;2022-09-27T21:09:55;15.0;;;12.0;;
53939;SDS011;39850;43.324;21.916;2022-09-27T21:14:31;15.0;;;12.0;;
53939;SDS011;39850;43.324;21.916;2022-09-27T21:19:10;14.0;;;12.0;;
53939;SDS011;39850;43.324;21.916;2022-09-27T21:23:58;14.0;;;12.0;;
53939;SDS011;39850;43.324;21.916;2022-09-27T21:28:44;14.0;;;12.0;;
53939;SDS011;39850;43.324;21.916;2022-09-27T21:33:24;14.0;;;12.0;;
53939;SDS011;39850;43.324;21.916;2022-09-27T21:38:01;14.0;;;12.0;;
53939;SDS011;39850;43.324;21.916;2022-09-27T21:42:37;14.0;;;12.0;;
53939;SDS011;39850;43.324;21.916;2022-09-27T21:47:14;14.0;;;12.0;;
53939;SDS011;39850;43.324;21.916;2022-09-27T21:51:51;14.0;;;11.0;;
53939;SDS011;39850;43.324;21.916;2022-09-27T21:56:37;14.0;;;11.0;;
53939;SDS011;39850;43.324;21.916;2022-09-27T22:38:31;14.0;;;12.0;;
53939;SDS011;39850;43.324;21.916;2022-09-27T22:43:08;14.0;;;12.0;;
53939;SDS011;39850;43.324;21.916;2022-09-27T22:47:44;14.0;;;12.0;;
53939;SDS011;39850;43.324;21.916;2022-09-27T22:52:21;14.0;;;11.0;;
53939;SDS011;39850;43.324;21.916;2022-09-27T22:56:58;14.0;;;11.0;;
53939;SDS011;39850;43.324;21.916;2022-09-27T23:01:35;14.0;;;11.0;;
53939;SDS011;39850;43.324;21.916;2022-09-27T23:06:18;14.0;;;11.0;;
53939;SDS011;39850;43.324;21.916;2022-09-27T23:11:08;13.0;;;10.0;;
53939;SDS011;39850;43.324;21.916;2022-09-27T23:15:48;13.0;;;10.0;;
53939;SDS011;39850;43.324;21.916;2022-09-27T23:52:49;10.0;;;8.0;;
53939;SDS011;39850;43.324;21.916;2022-09-27T23:57:26;10.0;;;8.0;;
